Currently 51°F in Simi Valley, California, USA
51°F
52°F / 50°F
6 mph SE
0.02"
Monday, February 20, 2017 2:55 AM PST

Simi Valley, California Weather Summary
Last 36 Hours

Temperature Winds Hourly Humidity Dewpoint
Time Report Norm Report Norm Max Gusts Precip. Rpt. Norm Rpt. Norm Pressure
1Mon 02:55 AM  50.5°F  51°F  6 mph SE  4 mph  12 mph  0.01"  95%  63%  49°F  39°F  30.14"
3Mon 02:48 AM  50.5°F  51°F  8 mph SE  3 mph  12 mph  ----  95%  63%  49°F  39°F  30.14"
Mon 02:00 AM  51.7°F  52°F  4 mph E  3 mph  6 mph  0.00"  95%  63%  50°F  39°F  30.14"
2Mon 01:41 AM  51.8°F  52°F  calm  3 mph  3 mph  ----  95%  63%  50°F  39°F  30.15"
Mon 01:00 AM  51.7°F  52°F  calm  3 mph  4 mph  0.01"  95%  63%  50°F  39°F  30.15"
Mon 12:00 AM  51.7°F  53°F  3 mph SE  2 mph  2 mph  0.01"  95%  63%  50°F  40°F  30.14"
Sun 11:00 PM  51.6°F  54°F  calm  3 mph  3 mph  0.04"  95%  63%  50°F  41°F  30.13"
Sun 10:00 PM  51.6°F  54°F  calm  2 mph  2 mph  0.03"  95%  62%  50°F  41°F  30.12"
Sun 09:00 PM  51.0°F  55°F  calm  3 mph  4 mph  0.00"  95%  61%  50°F  41°F  30.10"
Sun 08:00 PM  51.1°F  57°F  2 mph SW  2 mph  6 mph  0.04"  95%  60%  50°F  42°F  30.07"
Sun 07:00 PM  51.1°F  59°F  2 mph SW  2 mph  10 mph  0.01"  95%  57%  50°F  44°F  30.05"
Sun 06:00 PM  52.0°F  62°F  7 mph W  2 mph  11 mph  0.03"  94%  53%  50°F  45°F  30.02"
Sun 05:00 PM  54.5°F  66°F  5 mph W  3 mph  8 mph  0.00"  86%  49%  50°F  45°F  29.99"
Sun 04:00 PM  55.4°F  68°F  3 mph S  4 mph  10 mph  0.00"  82%  45%  50°F  45°F  29.96"
Sun 03:00 PM  55.9°F  69°F  7 mph S  5 mph  11 mph  0.00"  82%  43%  50°F  45°F  29.96"
Sun 02:00 PM  55.8°F  70°F  6 mph SE  5 mph  11 mph  0.00"  82%  39%  50°F  43°F  29.93"
Sun 01:00 PM  56.3°F  70°F  4 mph SE  4 mph  15 mph  0.00"  83%  38%  51°F  42°F  29.94"
Sun 12:00 PM  57.0°F  69°F  11 mph SE  4 mph  18 mph  0.00"  82%  39%  51°F  42°F  29.94"
Sun 11:00 AM  57.0°F  67°F  9 mph SE  4 mph  13 mph  0.00"  84%  43%  52°F  42°F  29.93"
Sun 10:00 AM  55.0°F  64°F  8 mph SE  3 mph  11 mph  0.00"  90%  49%  52°F  43°F  29.93"
Sun 09:00 AM  52.5°F  59°F  5 mph SE  2 mph  11 mph  0.00"  93%  56%  51°F  43°F  29.90"
Sun 08:00 AM  51.6°F  53°F  calm  2 mph  3 mph  0.00"  94%  62%  50°F  40°F  29.87"
Sun 07:00 AM  50.9°F  50°F  calm  3 mph  4 mph  0.00"  94%  65%  49°F  38°F  29.85"
Sun 06:00 AM  50.2°F  50°F  calm  3 mph  4 mph  0.00"  94%  64%  48°F  38°F  29.81"
Sun 05:00 AM  49.3°F  51°F  1 mph NE  3 mph  3 mph  0.00"  94%  63%  48°F  38°F  29.80"
Sun 04:00 AM  48.5°F  51°F  calm  3 mph  none  0.00"  94%  62%  47°F  38°F  29.78"
Sun 03:00 AM  47.9°F  51°F  calm  4 mph  6 mph  0.00"  94%  62%  46°F  38°F  29.77"
Sun 02:00 AM  48.6°F  52°F  2 mph NW  3 mph  7 mph  0.00"  94%  63%  47°F  39°F  29.75"
Sun 01:00 AM  51.2°F  52°F  2 mph E  3 mph  4 mph  0.00"  93%  62%  49°F  39°F  29.73"
Sun 12:00 AM  51.2°F  53°F  calm  2 mph  4 mph  0.00"  93%  63%  49°F  40°F  29.73"
Sat 11:00 PM  50.9°F  54°F  2 mph S  3 mph  4 mph  0.00"  93%  62%  49°F  41°F  29.71"
Sat 10:00 PM  50.7°F  54°F  1 mph N  2 mph  5 mph  0.00"  93%  62%  49°F  41°F  29.71"
Sat 09:00 PM  51.1°F  55°F  5 mph W  2 mph  6 mph  0.00"  93%  61%  49°F  41°F  29.68"
Sat 08:00 PM  51.8°F  57°F  4 mph W  2 mph  10 mph  0.00"  92%  59%  49°F  42°F  29.64"
Sat 07:00 PM  52.6°F  59°F  5 mph W  2 mph  11 mph  0.00"  91%  57%  50°F  44°F  29.62"
Sat 06:00 PM  53.7°F  63°F  5 mph W  2 mph  7 mph  0.00"  89%  53%  50°F  45°F  29.59"
Sat 05:00 PM  54.2°F  66°F  3 mph W  3 mph  13 mph  0.00"  88%  48%  51°F  45°F  29.57"
Sat 04:00 PM  54.5°F  68°F  6 mph W  5 mph  13 mph  0.01"  88%  44%  51°F  45°F  29.57"
Sat 03:00 PM  53.5°F  70°F  9 mph W  5 mph  14 mph  0.01"  93%  42%  51°F  44°F  29.56"

  1. Current weather data. No green row appears if the current weather data is also the high or low for the current day.
  2. High temperature for the current day.
  3. Low temperature for the current day.

The Simi Valley, California weather pages are a service of WeatherCurrents.
Copyright ©Mon Feb 20 02:56:40 PST 2017  WeatherCurrents. All rights reserved. - Submit questions and comments - Privacy Policy

This page automatically refreshes every 10 minutes.